sensor_id;sensor_type;location;lat;lon;timestamp;P1;durP1;ratioP1;P2;durP2;ratioP2
11854;SDS011;5987;53.140;8.904;2023-04-15T00:01:07;10.33;;;7.67;;
11854;SDS011;5987;53.140;8.904;2023-04-15T00:04:12;11.37;;;7.93;;
11854;SDS011;5987;53.140;8.904;2023-04-15T00:07:16;10.93;;;8.17;;
11854;SDS011;5987;53.140;8.904;2023-04-15T00:10:20;10.47;;;7.93;;
11854;SDS011;5987;53.140;8.904;2023-04-15T00:13:25;10.03;;;7.43;;
11854;SDS011;5987;53.140;8.904;2023-04-15T00:16:28;9.90;;;7.10;;
11854;SDS011;5987;53.140;8.904;2023-04-15T00:19:32;10.70;;;8.10;;
11854;SDS011;5987;53.140;8.904;2023-04-15T00:22:36;9.57;;;7.67;;
11854;SDS011;5987;53.140;8.904;2023-04-15T00:25:39;10.70;;;8.27;;
11854;SDS011;5987;53.140;8.904;2023-04-15T00:28:44;13.10;;;8.40;;
11854;SDS011;5987;53.140;8.904;2023-04-15T00:31:48;9.67;;;7.97;;
11854;SDS011;5987;53.140;8.904;2023-04-15T00:34:51;11.80;;;7.80;;
11854;SDS011;5987;53.140;8.904;2023-04-15T00:37:55;10.83;;;8.13;;
11854;SDS011;5987;53.140;8.904;2023-04-15T00:40:58;9.60;;;7.50;;
11854;SDS011;5987;53.140;8.904;2023-04-15T00:44:05;12.37;;;7.67;;
11854;SDS011;5987;53.140;8.904;2023-04-15T00:47:08;13.00;;;8.77;;
11854;SDS011;5987;53.140;8.904;2023-04-15T00:50:13;10.63;;;8.30;;
11854;SDS011;5987;53.140;8.904;2023-04-15T00:53:17;12.53;;;8.90;;
11854;SDS011;5987;53.140;8.904;2023-04-15T00:56:21;12.57;;;8.57;;
11854;SDS011;5987;53.140;8.904;2023-04-15T00:59:27;11.70;;;8.73;;
11854;SDS011;5987;53.140;8.904;2023-04-15T01:02:32;11.70;;;8.57;;
11854;SDS011;5987;53.140;8.904;2023-04-15T01:05:37;11.73;;;8.37;;
11854;SDS011;5987;53.140;8.904;2023-04-15T01:08:42;12.47;;;8.73;;
11854;SDS011;5987;53.140;8.904;2023-04-15T01:11:46;12.30;;;8.77;;
11854;SDS011;5987;53.140;8.904;2023-04-15T01:14:51;12.83;;;8.47;;
11854;SDS011;5987;53.140;8.904;2023-04-15T01:17:56;12.17;;;9.37;;
11854;SDS011;5987;53.140;8.904;2023-04-15T01:21:01;14.43;;;9.90;;
11854;SDS011;5987;53.140;8.904;2023-04-15T01:24:07;12.80;;;9.27;;
11854;SDS011;5987;53.140;8.904;2023-04-15T01:27:13;14.47;;;10.20;;
11854;SDS011;5987;53.140;8.904;2023-04-15T01:30:18;13.77;;;9.17;;
11854;SDS011;5987;53.140;8.904;2023-04-15T01:33:22;16.47;;;10.23;;
11854;SDS011;5987;53.140;8.904;2023-04-15T01:36:26;12.27;;;9.20;;
11854;SDS011;5987;53.140;8.904;2023-04-15T01:39:30;15.37;;;9.53;;
11854;SDS011;5987;53.140;8.904;2023-04-15T01:42:35;13.30;;;9.47;;
11854;SDS011;5987;53.140;8.904;2023-04-15T01:45:39;12.73;;;9.50;;
11854;SDS011;5987;53.140;8.904;2023-04-15T01:48:43;12.20;;;9.33;;
11854;SDS011;5987;53.140;8.904;2023-04-15T01:51:47;14.00;;;10.33;;
11854;SDS011;5987;53.140;8.904;2023-04-15T01:54:50;14.27;;;10.00;;
11854;SDS011;5987;53.140;8.904;2023-04-15T01:57:55;14.20;;;10.57;;
11854;SDS011;5987;53.140;8.904;2023-04-15T02:00:59;15.20;;;9.60;;
11854;SDS011;5987;53.140;8.904;2023-04-15T02:04:03;12.47;;;9.13;;
11854;SDS011;5987;53.140;8.904;2023-04-15T02:07:07;14.90;;;10.37;;
11854;SDS011;5987;53.140;8.904;2023-04-15T02:10:11;13.40;;;9.67;;
11854;SDS011;5987;53.140;8.904;2023-04-15T02:13:18;14.03;;;9.70;;
11854;SDS011;5987;53.140;8.904;2023-04-15T02:16:21;14.93;;;10.40;;
11854;SDS011;5987;53.140;8.904;2023-04-15T02:19:25;15.23;;;10.57;;
11854;SDS011;5987;53.140;8.904;2023-04-15T02:22:28;16.00;;;9.73;;
11854;SDS011;5987;53.140;8.904;2023-04-15T02:25:32;15.90;;;9.97;;
11854;SDS011;5987;53.140;8.904;2023-04-15T02:28:37;15.23;;;9.17;;
11854;SDS011;5987;53.140;8.904;2023-04-15T02:31:40;13.50;;;9.40;;
11854;SDS011;5987;53.140;8.904;2023-04-15T02:34:45;13.50;;;9.03;;
11854;SDS011;5987;53.140;8.904;2023-04-15T02:37:49;14.00;;;9.67;;
11854;SDS011;5987;53.140;8.904;2023-04-15T02:40:52;15.37;;;9.80;;
11854;SDS011;5987;53.140;8.904;2023-04-15T02:43:58;12.20;;;9.20;;
11854;SDS011;5987;53.140;8.904;2023-04-15T02:47:01;12.43;;;8.67;;
11854;SDS011;5987;53.140;8.904;2023-04-15T02:50:08;14.80;;;9.40;;
11854;SDS011;5987;53.140;8.904;2023-04-15T02:53:13;15.87;;;11.03;;
11854;SDS011;5987;53.140;8.904;2023-04-15T02:56:17;14.40;;;10.40;;
11854;SDS011;5987;53.140;8.904;2023-04-15T02:59:25;16.20;;;11.20;;
11854;SDS011;5987;53.140;8.904;2023-04-15T03:02:32;14.10;;;10.10;;
11854;SDS011;5987;53.140;8.904;2023-04-15T03:05:36;18.60;;;11.87;;
11854;SDS011;5987;53.140;8.904;2023-04-15T03:08:40;17.37;;;11.07;;
11854;SDS011;5987;53.140;8.904;2023-04-15T03:11:44;16.53;;;12.80;;
11854;SDS011;5987;53.140;8.904;2023-04-15T03:14:49;20.93;;;13.00;;
11854;SDS011;5987;53.140;8.904;2023-04-15T03:17:52;20.07;;;13.50;;
11854;SDS011;5987;53.140;8.904;2023-04-15T03:20:56;19.13;;;13.30;;
11854;SDS011;5987;53.140;8.904;2023-04-15T03:23:59;17.40;;;12.53;;
11854;SDS011;5987;53.140;8.904;2023-04-15T03:27:03;17.43;;;12.17;;
11854;SDS011;5987;53.140;8.904;2023-04-15T03:30:10;16.10;;;11.30;;
11854;SDS011;5987;53.140;8.904;2023-04-15T03:33:14;15.87;;;11.60;;
11854;SDS011;5987;53.140;8.904;2023-04-15T03:36:18;18.43;;;12.47;;
11854;SDS011;5987;53.140;8.904;2023-04-15T03:39:22;18.77;;;11.90;;
11854;SDS011;5987;53.140;8.904;2023-04-15T03:42:25;19.67;;;12.50;;
11854;SDS011;5987;53.140;8.904;2023-04-15T03:45:30;15.63;;;11.03;;
11854;SDS011;5987;53.140;8.904;2023-04-15T03:48:34;17.20;;;11.47;;
11854;SDS011;5987;53.140;8.904;2023-04-15T03:51:38;16.53;;;11.47;;
11854;SDS011;5987;53.140;8.904;2023-04-15T03:54:41;22.63;;;12.53;;
11854;SDS011;5987;53.140;8.904;2023-04-15T03:57:45;16.77;;;11.57;;
11854;SDS011;5987;53.140;8.904;2023-04-15T04:00:50;17.27;;;11.97;;
11854;SDS011;5987;53.140;8.904;2023-04-15T04:03:53;17.00;;;10.90;;
11854;SDS011;5987;53.140;8.904;2023-04-15T04:06:57;16.37;;;11.20;;
11854;SDS011;5987;53.140;8.904;2023-04-15T04:10:01;18.70;;;11.27;;
11854;SDS011;5987;53.140;8.904;2023-04-15T04:13:05;20.07;;;12.03;;
11854;SDS011;5987;53.140;8.904;2023-04-15T04:16:10;19.30;;;13.03;;
11854;SDS011;5987;53.140;8.904;2023-04-15T04:19:13;19.53;;;13.30;;
11854;SDS011;5987;53.140;8.904;2023-04-15T04:22:21;19.47;;;12.87;;
11854;SDS011;5987;53.140;8.904;2023-04-15T04:25:25;21.33;;;13.00;;
11854;SDS011;5987;53.140;8.904;2023-04-15T04:28:28;20.93;;;14.70;;
11854;SDS011;5987;53.140;8.904;2023-04-15T04:31:33;22.00;;;14.60;;
11854;SDS011;5987;53.140;8.904;2023-04-15T04:34:37;24.47;;;14.30;;
11854;SDS011;5987;53.140;8.904;2023-04-15T04:37:41;23.33;;;16.03;;
11854;SDS011;5987;53.140;8.904;2023-04-15T04:40:44;25.97;;;16.03;;
11854;SDS011;5987;53.140;8.904;2023-04-15T04:43:48;26.93;;;16.53;;
11854;SDS011;5987;53.140;8.904;2023-04-15T04:46:53;26.33;;;16.57;;
11854;SDS011;5987;53.140;8.904;2023-04-15T04:49:56;30.90;;;19.47;;
11854;SDS011;5987;53.140;8.904;2023-04-15T04:53:00;27.77;;;17.00;;
11854;SDS011;5987;53.140;8.904;2023-04-15T04:56:04;28.20;;;17.67;;
11854;SDS011;5987;53.140;8.904;2023-04-15T04:59:08;27.13;;;16.93;;
11854;SDS011;5987;53.140;8.904;2023-04-15T05:02:13;29.37;;;18.13;;
11854;SDS011;5987;53.140;8.904;2023-04-15T05:05:17;25.83;;;16.17;;
11854;SDS011;5987;53.140;8.904;2023-04-15T05:08:20;31.30;;;17.83;;
11854;SDS011;5987;53.140;8.904;2023-04-15T05:11:24;30.33;;;18.03;;
11854;SDS011;5987;53.140;8.904;2023-04-15T05:14:28;25.53;;;16.63;;
11854;SDS011;5987;53.140;8.904;2023-04-15T05:17:34;26.67;;;17.43;;
11854;SDS011;5987;53.140;8.904;2023-04-15T05:20:37;28.53;;;17.30;;
11854;SDS011;5987;53.140;8.904;2023-04-15T05:23:41;28.10;;;17.33;;
11854;SDS011;5987;53.140;8.904;2023-04-15T05:26:45;30.00;;;18.83;;
11854;SDS011;5987;53.140;8.904;2023-04-15T05:29:48;29.63;;;18.10;;
11854;SDS011;5987;53.140;8.904;2023-04-15T05:32:53;26.57;;;17.17;;
11854;SDS011;5987;53.140;8.904;2023-04-15T05:35:57;27.33;;;17.27;;
11854;SDS011;5987;53.140;8.904;2023-04-15T05:39:01;30.23;;;17.77;;
11854;SDS011;5987;53.140;8.904;2023-04-15T05:42:04;26.10;;;17.77;;
11854;SDS011;5987;53.140;8.904;2023-04-15T05:45:08;25.03;;;16.60;;
11854;SDS011;5987;53.140;8.904;2023-04-15T05:48:14;28.00;;;17.47;;
11854;SDS011;5987;53.140;8.904;2023-04-15T05:51:18;29.20;;;17.80;;
11854;SDS011;5987;53.140;8.904;2023-04-15T05:54:21;28.83;;;17.87;;
11854;SDS011;5987;53.140;8.904;2023-04-15T05:57:25;29.40;;;18.07;;
11854;SDS011;5987;53.140;8.904;2023-04-15T06:00:29;27.53;;;17.43;;
11854;SDS011;5987;53.140;8.904;2023-04-15T06:03:34;28.23;;;17.07;;
11854;SDS011;5987;53.140;8.904;2023-04-15T06:06:37;25.43;;;17.13;;
11854;SDS011;5987;53.140;8.904;2023-04-15T06:09:41;29.10;;;17.50;;
11854;SDS011;5987;53.140;8.904;2023-04-15T06:12:45;30.17;;;18.10;;
11854;SDS011;5987;53.140;8.904;2023-04-15T06:15:49;29.30;;;17.93;;
11854;SDS011;5987;53.140;8.904;2023-04-15T06:18:54;28.43;;;17.33;;
11854;SDS011;5987;53.140;8.904;2023-04-15T06:21:57;27.90;;;18.13;;
11854;SDS011;5987;53.140;8.904;2023-04-15T06:25:01;29.20;;;16.57;;
11854;SDS011;5987;53.140;8.904;2023-04-15T06:28:05;27.57;;;18.23;;
11854;SDS011;5987;53.140;8.904;2023-04-15T06:31:09;28.37;;;17.20;;
11854;SDS011;5987;53.140;8.904;2023-04-15T06:34:14;26.47;;;16.97;;
11854;SDS011;5987;53.140;8.904;2023-04-15T06:37:18;26.60;;;16.37;;
11854;SDS011;5987;53.140;8.904;2023-04-15T06:40:22;27.20;;;17.90;;
11854;SDS011;5987;53.140;8.904;2023-04-15T06:43:26;28.07;;;17.23;;
11854;SDS011;5987;53.140;8.904;2023-04-15T06:46:30;24.43;;;15.83;;
11854;SDS011;5987;53.140;8.904;2023-04-15T06:49:35;29.23;;;16.80;;
11854;SDS011;5987;53.140;8.904;2023-04-15T06:52:39;25.37;;;16.03;;
11854;SDS011;5987;53.140;8.904;2023-04-15T06:55:42;26.30;;;16.70;;
11854;SDS011;5987;53.140;8.904;2023-04-15T06:58:46;27.37;;;16.53;;
11854;SDS011;5987;53.140;8.904;2023-04-15T07:01:49;27.03;;;16.67;;
11854;SDS011;5987;53.140;8.904;2023-04-15T07:04:54;24.50;;;16.13;;
11854;SDS011;5987;53.140;8.904;2023-04-15T07:07:58;26.33;;;17.00;;
11854;SDS011;5987;53.140;8.904;2023-04-15T07:11:02;25.87;;;16.20;;
11854;SDS011;5987;53.140;8.904;2023-04-15T07:14:05;26.20;;;17.17;;
11854;SDS011;5987;53.140;8.904;2023-04-15T07:17:09;26.07;;;16.27;;
11854;SDS011;5987;53.140;8.904;2023-04-15T07:20:15;25.00;;;16.17;;
11854;SDS011;5987;53.140;8.904;2023-04-15T07:23:19;25.17;;;15.70;;
11854;SDS011;5987;53.140;8.904;2023-04-15T07:26:22;24.50;;;15.30;;
11854;SDS011;5987;53.140;8.904;2023-04-15T07:29:26;25.07;;;16.67;;
11854;SDS011;5987;53.140;8.904;2023-04-15T07:32:30;24.50;;;17.00;;
11854;SDS011;5987;53.140;8.904;2023-04-15T07:35:34;22.50;;;15.70;;
11854;SDS011;5987;53.140;8.904;2023-04-15T07:38:38;22.10;;;15.60;;
11854;SDS011;5987;53.140;8.904;2023-04-15T07:41:42;21.83;;;16.40;;
11854;SDS011;5987;53.140;8.904;2023-04-15T07:44:45;22.90;;;15.97;;
11854;SDS011;5987;53.140;8.904;2023-04-15T07:47:49;23.73;;;15.20;;
11854;SDS011;5987;53.140;8.904;2023-04-15T07:50:54;24.47;;;15.90;;
11854;SDS011;5987;53.140;8.904;2023-04-15T07:53:58;23.30;;;17.63;;
11854;SDS011;5987;53.140;8.904;2023-04-15T07:57:01;23.40;;;15.80;;
11854;SDS011;5987;53.140;8.904;2023-04-15T08:00:05;20.63;;;15.10;;
11854;SDS011;5987;53.140;8.904;2023-04-15T08:03:10;21.63;;;14.80;;
11854;SDS011;5987;53.140;8.904;2023-04-15T08:06:15;19.90;;;15.13;;
11854;SDS011;5987;53.140;8.904;2023-04-15T08:09:19;22.50;;;16.27;;
11854;SDS011;5987;53.140;8.904;2023-04-15T08:12:22;22.90;;;15.97;;
11854;SDS011;5987;53.140;8.904;2023-04-15T08:15:42;22.97;;;16.80;;
11854;SDS011;5987;53.140;8.904;2023-04-15T08:18:47;22.00;;;15.83;;
11854;SDS011;5987;53.140;8.904;2023-04-15T08:21:53;21.50;;;15.10;;
11854;SDS011;5987;53.140;8.904;2023-04-15T08:24:58;19.90;;;14.57;;
11854;SDS011;5987;53.140;8.904;2023-04-15T08:28:03;22.03;;;14.90;;
11854;SDS011;5987;53.140;8.904;2023-04-15T08:31:07;20.60;;;14.80;;
11854;SDS011;5987;53.140;8.904;2023-04-15T08:34:11;18.77;;;13.90;;
11854;SDS011;5987;53.140;8.904;2023-04-15T08:37:17;20.20;;;15.77;;
11854;SDS011;5987;53.140;8.904;2023-04-15T08:40:21;20.10;;;15.17;;
11854;SDS011;5987;53.140;8.904;2023-04-15T08:43:32;17.70;;;14.40;;
11854;SDS011;5987;53.140;8.904;2023-04-15T08:46:40;19.43;;;14.00;;
11854;SDS011;5987;53.140;8.904;2023-04-15T08:49:45;21.13;;;15.47;;
11854;SDS011;5987;53.140;8.904;2023-04-15T08:52:55;18.53;;;13.63;;
11854;SDS011;5987;53.140;8.904;2023-04-15T08:56:02;20.20;;;14.57;;
11854;SDS011;5987;53.140;8.904;2023-04-15T08:59:11;19.60;;;14.50;;
11854;SDS011;5987;53.140;8.904;2023-04-15T09:02:15;19.67;;;14.70;;
11854;SDS011;5987;53.140;8.904;2023-04-15T09:05:19;19.07;;;13.57;;
11854;SDS011;5987;53.140;8.904;2023-04-15T09:08:24;18.23;;;14.70;;
11854;SDS011;5987;53.140;8.904;2023-04-15T09:11:28;19.00;;;15.03;;
11854;SDS011;5987;53.140;8.904;2023-04-15T09:14:33;19.93;;;15.23;;
11854;SDS011;5987;53.140;8.904;2023-04-15T09:17:41;17.80;;;14.00;;
11854;SDS011;5987;53.140;8.904;2023-04-15T09:20:45;19.50;;;14.70;;
11854;SDS011;5987;53.140;8.904;2023-04-15T09:23:57;18.57;;;14.70;;
11854;SDS011;5987;53.140;8.904;2023-04-15T09:27:03;21.47;;;15.27;;
11854;SDS011;5987;53.140;8.904;2023-04-15T09:30:08;18.00;;;14.50;;
11854;SDS011;5987;53.140;8.904;2023-04-15T09:33:13;17.80;;;13.40;;
11854;SDS011;5987;53.140;8.904;2023-04-15T09:36:17;16.80;;;12.67;;
11854;SDS011;5987;53.140;8.904;2023-04-15T09:39:22;16.13;;;12.93;;
11854;SDS011;5987;53.140;8.904;2023-04-15T09:42:26;17.50;;;12.67;;
11854;SDS011;5987;53.140;8.904;2023-04-15T09:45:30;15.67;;;12.10;;
11854;SDS011;5987;53.140;8.904;2023-04-15T09:48:37;15.30;;;12.07;;
11854;SDS011;5987;53.140;8.904;2023-04-15T09:51:40;18.33;;;13.77;;
11854;SDS011;5987;53.140;8.904;2023-04-15T09:55:03;15.20;;;11.97;;
11854;SDS011;5987;53.140;8.904;2023-04-15T09:58:16;15.10;;;11.77;;
11854;SDS011;5987;53.140;8.904;2023-04-15T10:01:26;16.23;;;11.80;;
11854;SDS011;5987;53.140;8.904;2023-04-15T10:04:30;15.53;;;11.60;;
11854;SDS011;5987;53.140;8.904;2023-04-15T10:07:38;17.87;;;11.80;;
11854;SDS011;5987;53.140;8.904;2023-04-15T10:10:45;18.33;;;12.27;;
11854;SDS011;5987;53.140;8.904;2023-04-15T10:13:51;16.40;;;11.67;;
11854;SDS011;5987;53.140;8.904;2023-04-15T10:17:07;19.10;;;13.93;;
11854;SDS011;5987;53.140;8.904;2023-04-15T10:20:14;18.23;;;13.97;;
11854;SDS011;5987;53.140;8.904;2023-04-15T10:23:21;16.77;;;13.23;;
11854;SDS011;5987;53.140;8.904;2023-04-15T10:26:29;17.90;;;12.93;;
11854;SDS011;5987;53.140;8.904;2023-04-15T10:29:33;19.27;;;14.17;;
11854;SDS011;5987;53.140;8.904;2023-04-15T10:32:38;19.53;;;12.90;;
11854;SDS011;5987;53.140;8.904;2023-04-15T10:35:43;18.57;;;13.07;;
11854;SDS011;5987;53.140;8.904;2023-04-15T10:38:49;21.33;;;13.77;;
11854;SDS011;5987;53.140;8.904;2023-04-15T10:42:06;22.67;;;14.70;;
11854;SDS011;5987;53.140;8.904;2023-04-15T10:45:15;20.07;;;14.90;;
11854;SDS011;5987;53.140;8.904;2023-04-15T10:48:21;21.90;;;15.40;;
11854;SDS011;5987;53.140;8.904;2023-04-15T10:51:29;20.20;;;14.67;;
11854;SDS011;5987;53.140;8.904;2023-04-15T10:54:34;22.83;;;14.77;;
11854;SDS011;5987;53.140;8.904;2023-04-15T10:57:45;23.43;;;15.47;;
11854;SDS011;5987;53.140;8.904;2023-04-15T11:01:01;27.20;;;17.13;;
11854;SDS011;5987;53.140;8.904;2023-04-15T11:04:04;27.53;;;16.53;;
11854;SDS011;5987;53.140;8.904;2023-04-15T11:07:09;25.00;;;17.47;;
11854;SDS011;5987;53.140;8.904;2023-04-15T11:13:55;28.30;;;18.80;;
11854;SDS011;5987;53.140;8.904;2023-04-15T11:16:59;32.60;;;18.97;;
11854;SDS011;5987;53.140;8.904;2023-04-15T11:20:13;35.37;;;19.43;;
11854;SDS011;5987;53.140;8.904;2023-04-15T11:23:18;35.77;;;20.90;;
11854;SDS011;5987;53.140;8.904;2023-04-15T11:26:30;40.73;;;22.53;;
11854;SDS011;5987;53.140;8.904;2023-04-15T11:29:35;37.37;;;23.20;;
11854;SDS011;5987;53.140;8.904;2023-04-15T11:32:40;46.10;;;23.60;;
11854;SDS011;5987;53.140;8.904;2023-04-15T11:35:45;42.40;;;24.17;;
11854;SDS011;5987;53.140;8.904;2023-04-15T11:38:49;47.03;;;25.93;;
11854;SDS011;5987;53.140;8.904;2023-04-15T11:41:53;45.50;;;24.93;;
11854;SDS011;5987;53.140;8.904;2023-04-15T11:45:06;39.23;;;23.97;;
11854;SDS011;5987;53.140;8.904;2023-04-15T11:48:11;43.53;;;25.03;;
11854;SDS011;5987;53.140;8.904;2023-04-15T11:51:15;52.57;;;25.53;;
11854;SDS011;5987;53.140;8.904;2023-04-15T11:54:22;46.60;;;25.70;;
11854;SDS011;5987;53.140;8.904;2023-04-15T11:57:29;47.00;;;25.40;;
11854;SDS011;5987;53.140;8.904;2023-04-15T12:00:35;56.23;;;27.33;;
11854;SDS011;5987;53.140;8.904;2023-04-15T12:03:40;47.93;;;26.03;;
11854;SDS011;5987;53.140;8.904;2023-04-15T12:06:47;47.23;;;25.37;;
11854;SDS011;5987;53.140;8.904;2023-04-15T12:09:53;46.83;;;26.10;;
11854;SDS011;5987;53.140;8.904;2023-04-15T12:12:58;48.33;;;25.60;;
11854;SDS011;5987;53.140;8.904;2023-04-15T12:16:03;55.80;;;25.93;;
11854;SDS011;5987;53.140;8.904;2023-04-15T12:19:10;57.07;;;26.67;;
11854;SDS011;5987;53.140;8.904;2023-04-15T12:22:15;51.03;;;26.07;;
11854;SDS011;5987;53.140;8.904;2023-04-15T12:25:31;50.00;;;27.20;;
11854;SDS011;5987;53.140;8.904;2023-04-15T12:28:37;52.93;;;26.20;;
11854;SDS011;5987;53.140;8.904;2023-04-15T12:31:48;51.43;;;25.57;;
11854;SDS011;5987;53.140;8.904;2023-04-15T12:34:53;52.17;;;26.73;;
11854;SDS011;5987;53.140;8.904;2023-04-15T12:37:57;52.90;;;26.13;;
11854;SDS011;5987;53.140;8.904;2023-04-15T12:41:00;52.67;;;26.83;;
11854;SDS011;5987;53.140;8.904;2023-04-15T12:47:45;44.73;;;26.10;;
11854;SDS011;5987;53.140;8.904;2023-04-15T12:50:49;50.40;;;27.00;;
11854;SDS011;5987;53.140;8.904;2023-04-15T12:53:53;48.73;;;25.53;;
11854;SDS011;5987;53.140;8.904;2023-04-15T12:56:59;44.17;;;25.63;;
11854;SDS011;5987;53.140;8.904;2023-04-15T13:00:09;43.43;;;24.90;;
11854;SDS011;5987;53.140;8.904;2023-04-15T13:03:15;48.83;;;28.07;;
11854;SDS011;5987;53.140;8.904;2023-04-15T13:06:19;43.90;;;26.40;;
11854;SDS011;5987;53.140;8.904;2023-04-15T13:09:24;45.20;;;26.53;;
11854;SDS011;5987;53.140;8.904;2023-04-15T13:12:28;45.47;;;26.33;;
11854;SDS011;5987;53.140;8.904;2023-04-15T13:15:32;40.97;;;25.63;;
11854;SDS011;5987;53.140;8.904;2023-04-15T13:18:37;42.97;;;25.90;;
11854;SDS011;5987;53.140;8.904;2023-04-15T13:21:41;38.77;;;25.17;;
11854;SDS011;5987;53.140;8.904;2023-04-15T13:24:45;40.63;;;23.87;;
11854;SDS011;5987;53.140;8.904;2023-04-15T13:27:48;38.70;;;25.23;;
11854;SDS011;5987;53.140;8.904;2023-04-15T13:30:52;33.97;;;23.57;;
11854;SDS011;5987;53.140;8.904;2023-04-15T13:33:58;39.87;;;24.93;;
11854;SDS011;5987;53.140;8.904;2023-04-15T13:37:05;34.93;;;22.83;;
11854;SDS011;5987;53.140;8.904;2023-04-15T13:40:09;37.27;;;23.83;;
11854;SDS011;5987;53.140;8.904;2023-04-15T13:43:13;34.97;;;23.27;;
11854;SDS011;5987;53.140;8.904;2023-04-15T13:46:17;31.90;;;21.77;;
11854;SDS011;5987;53.140;8.904;2023-04-15T13:49:23;31.37;;;20.90;;
11854;SDS011;5987;53.140;8.904;2023-04-15T13:52:26;32.47;;;22.47;;
11854;SDS011;5987;53.140;8.904;2023-04-15T13:55:30;33.03;;;22.63;;
11854;SDS011;5987;53.140;8.904;2023-04-15T13:58:35;33.13;;;23.53;;
11854;SDS011;5987;53.140;8.904;2023-04-15T14:01:39;33.10;;;22.23;;
11854;SDS011;5987;53.140;8.904;2023-04-15T14:04:45;34.17;;;23.07;;
11854;SDS011;5987;53.140;8.904;2023-04-15T14:07:49;31.60;;;22.63;;
11854;SDS011;5987;53.140;8.904;2023-04-15T14:10:52;30.27;;;21.67;;
11854;SDS011;5987;53.140;8.904;2023-04-15T14:13:56;33.43;;;22.83;;
11854;SDS011;5987;53.140;8.904;2023-04-15T14:16:59;35.53;;;23.57;;
11854;SDS011;5987;53.140;8.904;2023-04-15T14:20:07;33.20;;;23.03;;
11854;SDS011;5987;53.140;8.904;2023-04-15T14:23:11;33.93;;;23.23;;
11854;SDS011;5987;53.140;8.904;2023-04-15T14:26:15;30.20;;;21.13;;
11854;SDS011;5987;53.140;8.904;2023-04-15T14:29:18;30.53;;;21.17;;
11854;SDS011;5987;53.140;8.904;2023-04-15T14:32:23;29.53;;;21.83;;
11854;SDS011;5987;53.140;8.904;2023-04-15T14:35:29;32.87;;;21.53;;
11854;SDS011;5987;53.140;8.904;2023-04-15T14:38:33;33.40;;;21.47;;
11854;SDS011;5987;53.140;8.904;2023-04-15T14:41:39;33.07;;;24.13;;
11854;SDS011;5987;53.140;8.904;2023-04-15T14:44:42;31.63;;;22.00;;
11854;SDS011;5987;53.140;8.904;2023-04-15T14:47:46;27.40;;;21.83;;
11854;SDS011;5987;53.140;8.904;2023-04-15T14:50:51;29.73;;;21.17;;
11854;SDS011;5987;53.140;8.904;2023-04-15T14:53:55;30.60;;;21.60;;
11854;SDS011;5987;53.140;8.904;2023-04-15T14:56:58;25.70;;;21.20;;
11854;SDS011;5987;53.140;8.904;2023-04-15T15:00:03;30.67;;;21.37;;
11854;SDS011;5987;53.140;8.904;2023-04-15T15:03:09;29.43;;;20.20;;
11854;SDS011;5987;53.140;8.904;2023-04-15T15:06:15;27.03;;;19.83;;
11854;SDS011;5987;53.140;8.904;2023-04-15T15:09:19;25.17;;;17.93;;
11854;SDS011;5987;53.140;8.904;2023-04-15T15:12:24;20.83;;;14.10;;
11854;SDS011;5987;53.140;8.904;2023-04-15T15:15:27;17.63;;;12.70;;
11854;SDS011;5987;53.140;8.904;2023-04-15T15:18:31;15.30;;;11.97;;
11854;SDS011;5987;53.140;8.904;2023-04-15T15:21:36;13.27;;;11.50;;
11854;SDS011;5987;53.140;8.904;2023-04-15T15:24:40;16.60;;;12.50;;
11854;SDS011;5987;53.140;8.904;2023-04-15T15:27:43;12.63;;;10.37;;
11854;SDS011;5987;53.140;8.904;2023-04-15T15:30:47;12.23;;;10.90;;
11854;SDS011;5987;53.140;8.904;2023-04-15T15:33:51;11.20;;;9.40;;
11854;SDS011;5987;53.140;8.904;2023-04-15T15:36:56;10.83;;;8.27;;
11854;SDS011;5987;53.140;8.904;2023-04-15T15:40:00;8.73;;;7.83;;
11854;SDS011;5987;53.140;8.904;2023-04-15T15:43:05;8.73;;;7.40;;
11854;SDS011;5987;53.140;8.904;2023-04-15T15:46:09;9.10;;;8.00;;
11854;SDS011;5987;53.140;8.904;2023-04-15T15:49:12;8.77;;;7.17;;
11854;SDS011;5987;53.140;8.904;2023-04-15T15:52:18;9.87;;;7.97;;
11854;SDS011;5987;53.140;8.904;2023-04-15T15:55:22;8.03;;;7.23;;
11854;SDS011;5987;53.140;8.904;2023-04-15T15:58:27;9.70;;;7.80;;
11854;SDS011;5987;53.140;8.904;2023-04-15T16:01:31;12.27;;;8.10;;
11854;SDS011;5987;53.140;8.904;2023-04-15T16:04:35;10.67;;;8.90;;
11854;SDS011;5987;53.140;8.904;2023-04-15T16:07:40;18.77;;;10.83;;
11854;SDS011;5987;53.140;8.904;2023-04-15T16:10:44;13.33;;;8.53;;
11854;SDS011;5987;53.140;8.904;2023-04-15T16:13:48;9.43;;;7.97;;
11854;SDS011;5987;53.140;8.904;2023-04-15T16:16:51;10.27;;;8.30;;
11854;SDS011;5987;53.140;8.904;2023-04-15T16:19:55;10.60;;;8.70;;
11854;SDS011;5987;53.140;8.904;2023-04-15T16:23:05;13.07;;;8.13;;
11854;SDS011;5987;53.140;8.904;2023-04-15T16:26:13;11.10;;;9.23;;
11854;SDS011;5987;53.140;8.904;2023-04-15T16:29:17;11.53;;;9.83;;
11854;SDS011;5987;53.140;8.904;2023-04-15T16:35:39;14.03;;;11.10;;
11854;SDS011;5987;53.140;8.904;2023-04-15T16:38:44;13.13;;;11.73;;
11854;SDS011;5987;53.140;8.904;2023-04-15T16:41:49;15.50;;;11.50;;
11854;SDS011;5987;53.140;8.904;2023-04-15T16:44:53;15.20;;;12.10;;
11854;SDS011;5987;53.140;8.904;2023-04-15T16:47:57;14.10;;;11.50;;
11854;SDS011;5987;53.140;8.904;2023-04-15T16:51:00;14.47;;;11.77;;
11854;SDS011;5987;53.140;8.904;2023-04-15T16:54:05;15.57;;;12.87;;
11854;SDS011;5987;53.140;8.904;2023-04-15T16:57:10;15.60;;;13.53;;
11854;SDS011;5987;53.140;8.904;2023-04-15T17:00:14;16.47;;;13.50;;
11854;SDS011;5987;53.140;8.904;2023-04-15T17:03:18;18.00;;;13.73;;
11854;SDS011;5987;53.140;8.904;2023-04-15T17:06:22;19.17;;;15.37;;
11854;SDS011;5987;53.140;8.904;2023-04-15T17:09:28;16.13;;;14.07;;
11854;SDS011;5987;53.140;8.904;2023-04-15T17:12:32;18.27;;;13.73;;
11854;SDS011;5987;53.140;8.904;2023-04-15T17:15:47;18.90;;;14.17;;
11854;SDS011;5987;53.140;8.904;2023-04-15T17:18:51;19.03;;;14.37;;
11854;SDS011;5987;53.140;8.904;2023-04-15T17:21:55;19.67;;;14.53;;
11854;SDS011;5987;53.140;8.904;2023-04-15T17:25:01;15.33;;;13.60;;
11854;SDS011;5987;53.140;8.904;2023-04-15T17:28:05;18.73;;;14.17;;
11854;SDS011;5987;53.140;8.904;2023-04-15T17:31:09;19.50;;;13.67;;
11854;SDS011;5987;53.140;8.904;2023-04-15T17:34:20;16.53;;;13.73;;
11854;SDS011;5987;53.140;8.904;2023-04-15T17:37:24;20.50;;;14.70;;
11854;SDS011;5987;53.140;8.904;2023-04-15T17:40:29;20.00;;;14.33;;
11854;SDS011;5987;53.140;8.904;2023-04-15T17:43:33;16.37;;;13.90;;
11854;SDS011;5987;53.140;8.904;2023-04-15T17:46:37;16.83;;;14.40;;
11854;SDS011;5987;53.140;8.904;2023-04-15T17:49:41;19.77;;;15.07;;
11854;SDS011;5987;53.140;8.904;2023-04-15T17:52:45;16.40;;;14.30;;
11854;SDS011;5987;53.140;8.904;2023-04-15T17:55:50;20.50;;;15.50;;
11854;SDS011;5987;53.140;8.904;2023-04-15T17:58:54;18.40;;;15.30;;
11854;SDS011;5987;53.140;8.904;2023-04-15T18:01:59;23.27;;;16.57;;
11854;SDS011;5987;53.140;8.904;2023-04-15T18:05:03;23.87;;;17.30;;
11854;SDS011;5987;53.140;8.904;2023-04-15T18:08:08;19.57;;;14.80;;
11854;SDS011;5987;53.140;8.904;2023-04-15T18:11:13;22.53;;;17.83;;
11854;SDS011;5987;53.140;8.904;2023-04-15T18:14:17;19.13;;;15.57;;
11854;SDS011;5987;53.140;8.904;2023-04-15T18:17:35;18.00;;;14.53;;
11854;SDS011;5987;53.140;8.904;2023-04-15T18:20:39;23.20;;;16.10;;
11854;SDS011;5987;53.140;8.904;2023-04-15T18:23:42;19.73;;;14.80;;
11854;SDS011;5987;53.140;8.904;2023-04-15T18:26:48;20.10;;;15.40;;
11854;SDS011;5987;53.140;8.904;2023-04-15T18:29:51;20.07;;;16.10;;
11854;SDS011;5987;53.140;8.904;2023-04-15T18:32:55;21.73;;;15.40;;